Terminal Aerodrome Forecast
Issued by NWS Central Illinois

Home | Current Version | Previous Version | Text Only | Print | Product List | Glossary On
Versions: 1 2 3 4 5 6 7 8 9 10 11 12 13 14 15 16 17 18 19
000
FTUS43 KILX 092341
TAFSPI
TAF
KSPI 092341Z 1000/1024 03009KT P6SM SKC
     FM100400 VRB02KT P6SM SKC
     FM100900 VRB02KT 3SM BR SCT250
     FM101300 VRB02KT P6SM BKN250
     FM101600 34006KT P6SM BKN150=

USA.gov is the U.S. government's official web portal to all federal, state and local government web resources and services.